Time;durP1;ratioP1;P1;durP2;ratioP2;P2;SDS_P1;SDS_P2;PMS_P1;PMS_P2;Temp;Humidity;BMP_temperature;BMP_pressure;BME280_temperature;BME280_humidity;BME280_pressure;Samples;Min_cycle;Max_cycle;Signal;HPM_P1;HPM_P2
2022/11/18 00:01:40;;;;;;;31.30;13.60;;;;;;;0.51;76.92;97719.95;103667;1290;108202;-68
2022/11/18 00:04:08;;;;;;;26.30;13.60;;;;;;;0.47;76.76;97717.88;103583;1297;97980;-68
2022/11/18 00:06:36;;;;;;;27.40;14.20;;;;;;;0.43;76.51;97716.16;103548;1291;97820;-68
2022/11/18 00:09:05;;;;;;;27.30;13.50;;;;;;;0.44;76.72;97718.24;103500;1291;111713;-67
2022/11/18 00:14:23;;;;;;;27.50;14.10;;;;;;;0.41;76.64;97727.79;103616;1297;108289;-68
2022/11/18 00:17:03;;;;;;;29.50;13.70;;;;;;;0.41;76.71;97734.61;103639;1289;97955;-67
2022/11/18 00:19:37;;;;;;;30.00;14.30;;;;;;;0.42;76.98;97735.77;103577;1288;97822;-67
2022/11/18 00:22:10;;;;;;;30.40;15.00;;;;;;;0.43;76.57;97731.00;103600;1295;111208;-68
2022/11/18 00:24:38;;;;;;;29.90;14.70;;;;;;;0.46;76.69;97731.38;103631;1297;95115;-71
2022/11/18 00:27:06;;;;;;;30.90;15.30;;;;;;;0.48;76.69;97728.64;103626;1287;109052;-68
2022/11/18 00:29:34;;;;;;;29.60;14.00;;;;;;;0.50;76.72;97727.86;103665;1299;97931;-67
2022/11/18 00:32:02;;;;;;;30.20;14.00;;;;;;;0.51;76.79;97736.00;103552;1298;96350;-67
2022/11/18 00:34:30;;;;;;;27.30;13.50;;;;;;;0.52;76.53;97738.36;103610;1291;111738;-68
2022/11/18 00:36:57;;;;;;;29.10;14.10;;;;;;;0.55;76.82;97732.32;103654;1298;98573;-68
2022/11/18 00:39:26;;;;;;;30.20;14.20;;;;;;;0.58;76.78;97730.20;103610;1299;107748;-68
2022/11/18 00:44:40;;;;;;;32.90;16.00;;;;;;;0.62;76.85;97722.35;103673;1299;95306;-66
2022/11/18 00:47:08;;;;;;;34.90;16.90;;;;;;;0.60;76.58;97718.40;103671;1291;111581;-67
2022/11/18 00:49:36;;;;;;;31.10;15.20;;;;;;;0.60;76.73;97723.69;103638;1290;99012;-68
2022/11/18 00:52:05;;;;;;;28.80;14.40;;;;;;;0.59;76.86;97714.99;103652;1292;108099;-68
2022/11/18 00:54:33;;;;;;;28.80;15.20;;;;;;;0.59;76.86;97712.20;103637;1299;97764;-68
2022/11/18 00:57:02;;;;;;;32.60;15.30;;;;;;;0.60;76.56;97706.05;103636;1292;95179;-70
2022/11/18 00:59:31;;;;;;;29.20;15.10;;;;;;;0.58;76.53;97705.08;103616;1295;110854;-69
2022/11/18 01:01:58;;;;;;;30.20;14.80;;;;;;;0.55;76.42;97699.30;103679;1299;97887;-67
2022/11/18 01:04:27;;;;;;;32.60;15.40;;;;;;;0.57;76.73;97698.71;103631;1291;108007;-68
2022/11/18 01:06:54;;;;;;;31.30;15.80;;;;;;;0.58;76.49;97693.58;103591;1299;97823;-67
2022/11/18 01:09:23;;;;;;;32.00;15.60;;;;;;;0.56;76.54;97693.17;103576;1299;95267;-67
2022/11/18 01:14:37;;;;;;;31.00;15.60;;;;;;;0.57;76.55;97696.60;103647;1295;97876;-67
2022/11/18 01:17:05;;;;;;;31.20;16.20;;;;;;;0.60;76.91;97694.19;103391;1299;107707;-67
2022/11/18 01:19:34;;;;;;;33.60;16.20;;;;;;;0.60;76.53;97690.68;103583;1291;97862;-67
2022/11/18 01:22:03;;;;;;;28.80;14.20;;;;;;;0.57;76.78;97690.31;103651;1291;97955;-67
2022/11/18 01:24:33;;;;;;;30.60;15.10;;;;;;;0.55;76.53;97688.83;103581;1297;111733;-66
2022/11/18 01:27:01;;;;;;;31.50;15.30;;;;;;;0.56;76.37;97688.45;103619;1289;98199;-71
2022/11/18 01:29:29;;;;;;;31.20;15.10;;;;;;;0.55;76.66;97683.80;103443;1285;107481;-68
2022/11/18 01:31:57;;;;;;;30.60;15.70;;;;;;;0.55;76.74;97680.83;103613;1291;97920;-71
2022/11/18 01:34:45;;;;;;;31.10;15.90;;;;;;;0.57;76.61;97679.48;103629;1299;98446;-68
2022/11/18 01:37:13;;;;;;;29.80;15.40;;;;;;;0.57;76.80;97674.77;103618;1291;111314;-70
2022/11/18 01:39:41;;;;;;;32.50;16.10;;;;;;;0.57;76.69;97677.76;103629;1297;97934;-67
2022/11/18 01:42:16;;;;;;;34.40;15.90;;;;;;;0.49;76.51;97675.06;103683;1289;108085;-69
2022/11/18 01:45:29;;;;;;;30.80;15.70;;;;;;;0.47;76.81;97673.40;103614;1291;98521;-66
2022/11/18 01:48:01;;;;;;;31.00;15.70;;;;;;;0.49;76.81;97665.65;103622;1298;97951;-66
2022/11/18 01:50:31;;;;;;;33.80;16.50;;;;;;;0.51;76.55;97664.66;103502;1291;111685;-67
2022/11/18 01:53:06;;;;;;;35.40;19.00;;;;;;;0.51;76.51;97660.67;103629;1298;98838;-68
2022/11/18 01:55:40;;;;;;;33.00;17.20;;;;;;;0.52;76.74;97651.18;103626;1297;108090;-67
2022/11/18 01:58:26;;;;;;;28.90;15.10;;;;;;;0.53;77.02;97655.98;103615;1292;97981;-68
2022/11/18 02:00:54;;;;;;;34.30;16.50;;;;;;;0.55;76.81;97658.17;103487;1291;97882;-68
2022/11/18 02:03:24;;;;;;;32.00;16.90;;;;;;;0.56;76.90;97655.15;103582;1296;111734;-67
2022/11/18 02:05:53;;;;;;;32.00;15.90;;;;;;;0.56;76.82;97657.05;103639;1298;97990;-69
2022/11/18 02:08:22;;;;;;;31.70;15.60;;;;;;;0.58;76.87;97657.64;103617;1294;107187;-68
2022/11/18 02:10:50;;;;;;;35.00;18.10;;;;;;;0.60;76.78;97657.33;103585;1297;98613;-67
2022/11/18 02:13:18;;;;;;;31.80;15.90;;;;;;;0.62;76.77;97659.20;103593;1295;95148;-67
2022/11/18 02:15:52;;;;;;;33.00;16.60;;;;;;;0.63;76.95;97659.10;103608;1292;112030;-67
2022/11/18 02:18:46;;;;;;;;;;;;;;;0.64;76.62;97659.44;103645;1295;95100;-67
2022/11/18 02:21:38;;;;;;;29.80;14.90;;;;;;;0.56;76.74;97664.88;103542;1296;107303;-68
2022/11/18 02:24:38;;;;;;;29.90;14.40;;;;;;;0.59;76.84;97670.48;103515;1298;97970;-71
2022/11/18 02:27:16;;;;;;;30.60;14.60;;;;;;;0.62;76.90;97669.31;103614;1291;97828;-69
2022/11/18 02:29:57;;;;;;;27.40;13.80;;;;;;;0.63;76.89;97670.97;103562;1298;110754;-68
2022/11/18 02:32:32;;;;;;;31.10;16.00;;;;;;;0.64;76.62;97666.57;103574;1299;97967;-69
2022/11/18 02:35:09;;;;;;;27.30;14.50;;;;;;;0.64;76.83;97658.56;103570;1291;108070;-70
2022/11/18 02:37:59;;;;;;;28.00;13.40;;;;;;;0.64;76.69;97655.23;103561;1299;97926;-71
2022/11/18 02:40:32;;;;;;;29.60;14.70;;;;;;;0.63;76.93;97652.50;103618;1298;97870;-71
2022/11/18 02:43:25;;;;;;;27.70;14.40;;;;;;;0.62;76.85;97649.95;103577;1297;110865;-72
2022/11/18 02:45:59;;;;;;;27.20;13.40;;;;;;;0.61;76.41;97648.59;103607;1297;96945;-67
2022/11/18 02:48:31;;;;;;;29.50;14.00;;;;;;;0.59;76.76;97646.77;103659;1296;107450;-68
2022/11/18 02:51:02;;;;;;;27.70;14.10;;;;;;;0.59;76.90;97642.95;103582;1299;97747;-68
2022/11/18 02:53:32;;;;;;;28.90;14.70;;;;;;;0.59;76.75;97638.59;103663;1297;97856;-67
2022/11/18 02:56:02;;;;;;;27.00;14.10;;;;;;;0.61;76.62;97638.31;103590;1299;109895;-67
2022/11/18 02:58:30;;;;;;;29.20;13.60;;;;;;;0.58;76.48;97635.50;103609;1299;98442;-67
2022/11/18 03:01:00;;;;;;;28.50;14.10;;;;;;;0.57;76.64;97631.89;103606;1293;108119;-67
2022/11/18 03:03:30;;;;;;;28.20;14.80;;;;;;;0.56;76.42;97636.45;103650;1299;97970;-67
2022/11/18 03:06:15;;;;;;;28.80;14.20;;;;;;;0.56;76.59;97632.30;103596;1283;97881;-67
2022/11/18 03:08:54;;;;;;;30.30;14.70;;;;;;;0.56;76.83;97625.30;103644;1298;111678;-66
2022/11/18 03:11:25;;;;;;;31.60;15.60;;;;;;;0.55;76.70;97616.98;103447;1297;97862;-67
2022/11/18 03:14:04;;;;;;;28.30;15.30;;;;;;;0.53;76.64;97612.55;103598;1291;108019;-68
2022/11/18 03:16:48;;;;;;;29.90;14.30;;;;;;;0.51;76.51;97603.77;103593;1305;97848;-69
2022/11/18 03:19:39;;;;;;;29.40;14.20;;;;;;;0.49;76.41;97597.11;103597;1291;97866;-69
2022/11/18 03:22:24;;;;;;;28.40;13.60;;;;;;;0.46;76.76;97589.38;103532;1292;111729;-68
2022/11/18 03:25:19;;;;;;;27.70;13.60;;;;;;;0.42;76.72;97591.02;103674;1291;97876;-69
2022/11/18 03:27:59;;;;;;;29.40;13.10;;;;;;;0.41;76.71;97592.98;103605;1299;108131;-69
2022/11/18 03:30:30;;;;;;;27.40;13.70;;;;;;;0.41;76.48;97597.88;103573;1299;97827;-71
2022/11/18 03:33:05;;;;;;;29.00;14.50;;;;;;;0.40;76.54;97598.08;103553;1296;97825;-72
2022/11/18 03:35:36;;;;;;;28.40;14.70;;;;;;;0.39;76.54;97593.80;103545;1289;111776;-70
2022/11/18 03:38:10;;;;;;;26.00;13.20;;;;;;;0.39;76.97;97593.08;103604;1293;97913;-68
2022/11/18 03:40:45;;;;;;;27.50;14.00;;;;;;;0.41;76.79;97588.08;103554;1290;106597;-68
2022/11/18 03:43:21;;;;;;;28.60;14.40;;;;;;;0.44;76.65;97586.36;103554;1296;97976;-69
2022/11/18 03:46:00;;;;;;;27.00;13.50;;;;;;;0.46;76.66;97587.31;103680;1291;97953;-68
2022/11/18 03:48:33;;;;;;;26.40;13.80;;;;;;;0.49;76.81;97585.40;103661;1295;111381;-67
2022/11/18 03:51:07;;;;;;;26.20;12.60;;;;;;;0.51;76.63;97588.08;103638;1298;95312;-68
2022/11/18 03:53:49;;;;;;;25.60;12.00;;;;;;;0.52;76.81;97591.00;103648;1296;107191;-66
2022/11/18 03:56:24;;;;;;;28.60;14.60;;;;;;;0.52;76.81;97590.09;103612;1298;98489;-66
2022/11/18 03:58:59;;;;;;;28.80;13.40;;;;;;;0.54;76.42;97591.04;103578;1299;97884;-66
2022/11/18 04:01:34;;;;;;;27.30;13.10;;;;;;;0.56;76.89;97585.52;103582;1296;110758;-67
2022/11/18 04:04:03;;;;;;;28.70;13.10;;;;;;;0.58;76.71;97583.84;103631;1292;95182;-67
2022/11/18 04:06:47;;;;;;;24.80;12.30;;;;;;;0.55;76.60;97583.15;103619;1291;107301;-69
2022/11/18 04:09:24;;;;;;;26.30;12.20;;;;;;;0.56;76.80;97577.00;103410;1291;97906;-67
2022/11/18 04:12:01;;;;;;;27.50;13.10;;;;;;;0.57;76.61;97575.52;103629;1292;98419;-67
2022/11/18 04:14:42;;;;;;;29.00;13.80;;;;;;;0.56;77.10;97576.27;103595;1289;111738;-67
2022/11/18 04:17:13;;;;;;;27.80;13.60;;;;;;;0.54;76.59;97581.79;103612;1297;97859;-67
2022/11/18 04:19:41;;;;;;;26.30;13.30;;;;;;;0.52;76.61;97587.30;103411;1291;107883;-67
2022/11/18 04:22:11;;;;;;;26.40;13.10;;;;;;;0.54;76.72;97584.77;103647;1291;95631;-66
2022/11/18 04:24:39;;;;;;;28.80;14.20;;;;;;;0.56;76.72;97582.73;103777;1289;97855;-67
2022/11/18 04:27:07;;;;;;;28.50;14.70;;;;;;;0.57;76.72;97588.64;103604;1297;111616;-69
2022/11/18 04:29:36;;;;;;;28.10;14.60;;;;;;;0.57;76.95;97587.05;103452;1299;98104;-68
2022/11/18 04:32:04;;;;;;;28.30;14.40;;;;;;;0.59;76.94;97590.05;103545;1299;108034;-68
2022/11/18 04:34:32;;;;;;;29.00;13.70;;;;;;;0.62;76.67;97590.60;103580;1295;97950;-68
2022/11/18 04:37:00;;;;;;;27.40;14.30;;;;;;;0.62;76.89;97580.86;103519;1295;95099;-68
2022/11/18 04:39:28;;;;;;;30.00;14.00;;;;;;;0.62;76.80;97577.02;103601;1291;111494;-67
2022/11/18 04:41:56;;;;;;;28.60;13.70;;;;;;;0.63;77.09;97575.40;103548;1295;97896;-68
2022/11/18 04:44:27;;;;;;;26.70;13.40;;;;;;;0.58;76.78;97574.41;103463;1289;135601;-69
2022/11/18 04:46:57;;;;;;;25.80;13.30;;;;;;;0.59;76.61;97575.09;103459;1297;98076;-67
2022/11/18 04:49:26;;;;;;;27.70;14.20;;;;;;;0.59;76.95;97572.78;103397;1299;97976;-68
2022/11/18 04:51:55;;;;;;;28.20;14.10;;;;;;;0.61;77.02;97575.02;103554;1289;111098;-69
2022/11/18 04:54:25;;;;;;;25.40;13.10;;;;;;;0.60;76.76;97573.64;103402;1291;95192;-69
2022/11/18 04:56:54;;;;;;;25.60;12.70;;;;;;;0.54;76.41;97577.11;103621;1290;107487;-70
2022/11/18 04:59:25;;;;;;;28.30;13.10;;;;;;;0.51;76.80;97575.52;103676;1299;97900;-68
2022/11/18 05:01:55;;;;;;;25.40;12.90;;;;;;;0.49;76.67;97577.74;103625;1290;97901;-69
2022/11/18 05:04:26;;;;;;;27.40;13.70;;;;;;;0.49;76.51;97582.27;103684;1297;111142;-68
2022/11/18 05:06:54;;;;;;;25.90;13.10;;;;;;;0.50;76.70;97581.48;103681;1294;95099;-69
2022/11/18 05:09:23;;;;;;;26.20;13.00;;;;;;;0.52;76.46;97580.35;103583;1291;108118;-68
2022/11/18 05:14:46;;;;;;;25.70;12.70;;;;;;;0.58;76.97;97575.67;103596;1299;97802;-68
2022/11/18 05:17:18;;;;;;;26.50;13.40;;;;;;;0.59;76.93;97576.10;103511;1297;111750;-68
2022/11/18 05:19:46;;;;;;;28.20;13.20;;;;;;;0.60;76.95;97583.39;103645;1298;97976;-68
2022/11/18 05:22:14;;;;;;;30.80;14.70;;;;;;;0.61;77.11;97593.27;103614;1292;107809;-68
2022/11/18 05:24:42;;;;;;;29.60;14.80;;;;;;;0.62;76.93;97595.85;103602;1295;97959;-68
2022/11/18 05:27:11;;;;;;;29.10;14.70;;;;;;;0.63;76.72;97591.06;103452;1298;97381;-67
2022/11/18 05:29:39;;;;;;;29.90;15.40;;;;;;;0.64;76.83;97594.66;103647;1295;110701;-67
2022/11/18 05:32:08;;;;;;;30.10;15.80;;;;;;;0.64;76.93;97599.04;103608;1299;98002;-67
2022/11/18 05:34:36;;;;;;;27.50;14.90;;;;;;;0.65;76.84;97599.88;103664;1295;107271;-66
2022/11/18 05:37:04;;;;;;;27.30;14.20;;;;;;;0.66;76.74;97600.17;103638;1297;95186;-68
2022/11/18 05:39:32;;;;;;;29.10;15.00;;;;;;;0.65;76.71;97597.23;103668;1297;95208;-68
2022/11/18 05:44:50;;;;;;;26.90;14.00;;;;;;;0.62;76.92;97590.45;103624;1298;97828;-68
2022/11/18 05:47:25;;;;;;;29.80;14.80;;;;;;;0.57;76.59;97587.06;103631;1290;107981;-68
2022/11/18 05:49:54;;;;;;;27.90;13.70;;;;;;;0.52;76.71;97588.35;103705;1292;97878;-67
2022/11/18 05:52:22;;;;;;;29.60;14.50;;;;;;;0.50;76.51;97586.73;103681;1289;95436;-68
2022/11/18 05:54:50;;;;;;;29.40;16.00;;;;;;;0.50;76.52;97584.99;103696;1297;110574;-68
2022/11/18 05:57:18;;;;;;;28.80;14.50;;;;;;;0.49;76.60;97585.95;103650;1299;97973;-68
2022/11/18 05:59:45;;;;;;;28.40;14.70;;;;;;;0.47;76.83;97583.77;103678;1299;108276;-69
2022/11/18 06:02:19;;;;;;;28.10;15.30;;;;;;;0.47;76.86;97585.17;103661;1292;97664;-67
2022/11/18 06:04:58;;;;;;;26.20;13.80;;;;;;;0.47;76.81;97591.99;103703;1297;95212;-67
2022/11/18 06:07:28;;;;;;;27.30;13.90;;;;;;;0.46;76.57;97593.58;103640;1299;111856;-68
2022/11/18 06:09:59;;;;;;;28.50;15.00;;;;;;;0.46;76.60;97597.79;103681;1296;97902;-69
2022/11/18 06:12:41;;;;;;;29.40;15.00;;;;;;;0.46;76.91;97596.76;103685;1294;108187;-68
2022/11/18 06:15:27;;;;;;;25.80;13.00;;;;;;;0.45;76.71;97604.29;103627;1295;97824;-68
2022/11/18 06:18:05;;;;;;;28.60;14.20;;;;;;;0.41;76.76;97615.14;103528;1288;97951;-69
2022/11/18 06:20:35;;;;;;;26.40;13.20;;;;;;;0.40;76.45;97613.43;103631;1297;110777;-70
2022/11/18 06:23:04;;;;;;;27.50;12.80;;;;;;;0.36;76.50;97616.79;103636;1292;97879;-69
2022/11/18 06:25:37;;;;;;;27.90;13.30;;;;;;;0.32;76.54;97615.96;103687;1296;108946;-71
2022/11/18 06:28:10;;;;;;;26.10;13.40;;;;;;;0.32;76.41;97624.50;103595;1298;97270;-69
2022/11/18 06:30:38;;;;;;;29.90;15.20;;;;;;;0.30;76.70;97623.73;103639;1290;97877;-68
2022/11/18 06:33:07;;;;;;;27.70;14.40;;;;;;;0.31;76.71;97623.89;103515;1299;112587;-70
2022/11/18 06:35:35;;;;;;;35.90;19.40;;;;;;;0.33;76.66;97623.23;103590;1291;97889;-69
2022/11/18 06:38:03;;;;;;;34.60;17.50;;;;;;;0.37;76.76;97627.23;103386;1292;107564;-70
2022/11/18 06:40:31;;;;;;;32.80;16.50;;;;;;;0.40;76.88;97629.65;103626;1295;96440;-69
2022/11/18 06:48:46;;;;;;;29.00;14.80;;;;;;;0.47;76.91;97647.63;103577;1298;97390;-71
2022/11/18 06:51:15;;;;;;;29.50;14.60;;;;;;;0.48;76.88;97643.38;103603;1291;107453;-70
2022/11/18 06:53:43;;;;;;;30.30;16.00;;;;;;;0.50;76.99;97647.25;103619;1296;97827;-71
2022/11/18 06:56:14;;;;;;;30.60;16.70;;;;;;;0.52;76.72;97653.61;103604;1295;95639;-70
2022/11/18 06:58:45;;;;;;;33.20;18.00;;;;;;;0.53;76.94;97656.33;103616;1299;109526;-69
2022/11/18 07:01:13;;;;;;;32.40;15.80;;;;;;;0.56;76.88;97658.46;103591;1298;98038;-67
2022/11/18 07:03:43;;;;;;;32.60;16.70;;;;;;;0.57;76.88;97652.80;103580;1296;108402;-68
2022/11/18 07:06:14;;;;;;;33.20;17.40;;;;;;;0.59;76.99;97648.52;103619;1299;98059;-70
2022/11/18 07:08:43;;;;;;;34.60;16.70;;;;;;;0.62;77.01;97649.41;103544;1299;97922;-69
2022/11/18 07:11:15;;;;;;;32.90;17.90;;;;;;;0.64;77.09;97653.80;103640;1296;111195;-69
2022/11/18 07:13:44;;;;;;;35.50;19.70;;;;;;;0.68;77.13;97652.23;103594;1292;97885;-69
2022/11/18 07:16:16;;;;;;;32.60;17.90;;;;;;;0.70;77.02;97646.36;103617;1291;107144;-68
2022/11/18 07:18:48;;;;;;;29.50;16.60;;;;;;;0.71;77.01;97644.91;103596;1298;96937;-73
2022/11/18 07:21:24;;;;;;;33.20;18.00;;;;;;;0.71;76.93;97648.92;103677;1297;97927;-70
2022/11/18 07:23:55;;;;;;;32.10;17.40;;;;;;;0.71;76.86;97642.08;103621;1299;111226;-69
2022/11/18 07:26:23;;;;;;;31.30;16.40;;;;;;;0.72;77.06;97639.77;103666;1295;97875;-71
2022/11/18 07:28:53;;;;;;;32.90;18.50;;;;;;;0.73;77.10;97638.68;103636;1296;107472;-70
2022/11/18 07:31:21;;;;;;;33.20;17.50;;;;;;;0.73;76.82;97640.76;103598;1297;97996;-69
2022/11/18 07:33:53;;;;;;;34.50;19.00;;;;;;;0.74;76.71;97638.27;103677;1299;97779;-69
2022/11/18 07:36:24;;;;;;;32.60;17.40;;;;;;;0.76;77.19;97636.10;103492;1299;111247;-69
2022/11/18 07:38:58;;;;;;;33.90;17.90;;;;;;;0.77;76.91;97636.03;103446;1291;95132;-70
2022/11/18 07:41:28;;;;;;;33.70;17.90;;;;;;;0.77;76.95;97629.42;103606;1292;107660;-69
2022/11/18 07:43:58;;;;;;;35.20;19.40;;;;;;;0.77;76.85;97619.84;103655;1299;98547;-70
2022/11/18 07:46:29;;;;;;;39.30;21.40;;;;;;;0.78;76.96;97617.70;103592;1293;96217;-70
2022/11/18 07:48:59;;;;;;;34.30;19.40;;;;;;;0.79;77.18;97616.38;103648;1303;111081;-70
2022/11/18 07:51:31;;;;;;;36.30;20.40;;;;;;;0.79;77.13;97613.91;103646;1299;97965;-70
2022/11/18 07:54:00;;;;;;;35.50;19.40;;;;;;;0.81;76.83;97609.77;103661;1299;107247;-71
2022/11/18 07:56:28;;;;;;;34.60;19.30;;;;;;;0.84;76.92;97603.35;103665;1297;98031;-70
2022/11/18 07:58:56;;;;;;;37.10;20.50;;;;;;;0.86;77.13;97597.29;103681;1297;97842;-70
2022/11/18 08:01:29;;;;;;;34.20;18.10;;;;;;;0.88;76.93;97597.67;103675;1295;111118;-70
2022/11/18 08:04:04;;;;;;;32.40;16.10;;;;;;;0.89;76.97;97600.79;103723;1296;97967;-70
2022/11/18 08:06:33;;;;;;;31.40;16.30;;;;;;;0.85;76.98;97602.24;103670;1299;107508;-68
2022/11/18 08:09:03;;;;;;;33.60;19.30;;;;;;;0.85;77.06;97603.10;103672;1303;98406;-69
2022/11/18 08:11:31;;;;;;;31.60;17.30;;;;;;;0.86;76.95;97598.35;103640;1289;97857;-70
2022/11/18 08:14:00;;;;;;;32.30;16.80;;;;;;;0.87;76.70;97596.17;103651;1290;111635;-69
2022/11/18 08:16:28;;;;;;;33.30;18.30;;;;;;;0.89;76.81;97595.75;103537;1295;96220;-70
2022/11/18 08:18:58;;;;;;;31.20;15.90;;;;;;;0.90;77.01;97594.97;103450;1302;107211;-70
2022/11/18 08:21:26;;;;;;;34.30;17.30;;;;;;;0.91;76.88;97590.91;103641;1299;97977;-70
2022/11/18 08:23:56;;;;;;;35.60;19.90;;;;;;;0.92;77.07;97591.04;103643;1296;95109;-70
2022/11/18 08:26:25;;;;;;;33.50;17.80;;;;;;;0.93;77.00;97589.44;103580;1290;112331;-69
2022/11/18 08:28:53;;;;;;;32.90;18.70;;;;;;;0.94;77.18;97584.63;103667;1297;97870;-71
2022/11/18 08:31:27;;;;;;;33.30;16.60;;;;;;;0.95;77.07;97589.98;103622;1305;107838;-69
2022/11/18 08:34:05;;;;;;;32.10;16.00;;;;;;;0.96;76.90;97601.32;103652;1297;97951;-68
2022/11/18 08:36:36;;;;;;;30.70;16.00;;;;;;;0.95;76.91;97608.67;103568;1299;97942;-71
2022/11/18 08:39:07;;;;;;;32.80;16.40;;;;;;;0.96;77.04;97612.48;103648;1297;110734;-70
2022/11/18 08:41:37;;;;;;;29.20;15.30;;;;;;;0.95;76.88;97611.84;103657;1289;97961;-70
2022/11/18 08:44:09;;;;;;;25.50;12.70;;;;;;;0.94;76.68;97616.95;103453;1293;107640;-70
2022/11/18 08:46:36;;;;;;;24.50;12.40;;;;;;;0.94;76.96;97617.81;103564;1299;95206;-70
2022/11/18 08:49:05;;;;;;;23.70;11.90;;;;;;;0.93;76.80;97619.97;103575;1300;97961;-71
2022/11/18 08:51:33;;;;;;;25.70;13.30;;;;;;;0.94;76.99;97622.88;103550;1298;111562;-70
2022/11/18 08:54:01;;;;;;;27.20;13.20;;;;;;;0.94;76.85;97629.52;103574;1297;97829;-70
2022/11/18 08:56:29;;;;;;;25.50;13.00;;;;;;;0.94;77.15;97625.30;103629;1296;107483;-69
2022/11/18 08:59:00;;;;;;;29.00;13.60;;;;;;;0.97;77.12;97621.48;103628;1299;97974;-70
2022/11/18 09:01:28;;;;;;;26.80;13.30;;;;;;;1.01;77.22;97620.90;103666;1296;97895;-69
2022/11/18 09:03:56;;;;;;;26.70;12.90;;;;;;;1.02;77.04;97620.14;103632;1298;110790;-69
2022/11/18 09:06:27;;;;;;;23.20;11.70;;;;;;;1.03;77.06;97621.66;103631;1297;96514;-68
2022/11/18 09:08:57;;;;;;;25.10;12.00;;;;;;;1.04;76.94;97629.10;103604;1295;107142;-70
2022/11/18 09:11:34;;;;;;;21.00;10.20;;;;;;;1.03;77.01;97634.02;103563;1299;98308;-69
2022/11/18 09:14:02;;;;;;;21.40;10.10;;;;;;;0.99;77.00;97633.39;103630;1291;97870;-68
2022/11/18 09:16:50;;;;;;;22.50;10.90;;;;;;;0.98;77.13;97632.26;103587;1297;111118;-69
2022/11/18 09:19:18;;;;;;;20.90;10.10;;;;;;;0.98;76.91;97627.38;103669;1291;97861;-69
2022/11/18 09:22:07;;;;;;;22.10;9.70;;;;;;;0.97;77.03;97616.39;103472;1299;107679;-70
2022/11/18 09:24:36;;;;;;;22.60;10.80;;;;;;;0.94;76.85;97612.73;103612;1299;97289;-69
2022/11/18 09:27:06;;;;;;;23.90;12.20;;;;;;;0.94;77.03;97612.36;103626;1289;97967;-69
2022/11/18 09:29:42;;;;;;;24.10;11.30;;;;;;;0.93;76.74;97614.34;103600;1288;111673;-69
2022/11/18 09:32:10;;;;;;;22.70;10.80;;;;;;;0.93;76.88;97616.66;103597;1297;97766;-70
2022/11/18 09:34:38;;;;;;;20.90;9.90;;;;;;;0.93;76.96;97615.23;103588;1284;108118;-70
2022/11/18 09:37:06;;;;;;;18.50;9.40;;;;;;;0.93;76.78;97618.38;103599;1291;97973;-69
2022/11/18 09:39:36;;;;;;;19.20;9.30;;;;;;;0.94;77.09;97622.70;103684;1291;97927;-70
2022/11/18 09:42:25;;;;;;;21.10;8.90;;;;;;;0.93;76.77;97631.30;103513;1297;111261;-70
2022/11/18 09:45:04;;;;;;;21.30;9.50;;;;;;;0.91;76.81;97635.61;103667;1283;97851;-70
2022/11/18 09:47:40;;;;;;;21.50;9.80;;;;;;;0.90;76.80;97631.95;103648;1290;107510;-70
2022/11/18 09:50:15;;;;;;;23.50;10.70;;;;;;;0.91;76.85;97631.09;103646;1298;95321;-70
2022/11/18 09:53:17;;;;;;;20.60;9.20;;;;;;;0.90;77.00;97629.88;103547;1289;97874;-69
2022/11/18 09:55:46;;;;;;;21.40;9.40;;;;;;;0.88;77.11;97631.40;103489;1291;111555;-70
2022/11/18 09:58:20;;;;;;;20.60;9.30;;;;;;;0.86;76.55;97627.98;103653;1295;96815;-72
2022/11/18 10:00:48;;;;;;;20.20;9.60;;;;;;;0.86;76.83;97620.17;103536;1292;108036;-71
2022/11/18 10:03:27;;;;;;;21.90;10.20;;;;;;;0.85;76.96;97621.10;103535;1292;95237;-69
2022/11/18 10:06:11;;;;;;;21.30;9.60;;;;;;;0.84;76.96;97633.54;103506;1296;96259;-69
2022/11/18 10:09:04;;;;;;;21.00;9.60;;;;;;;0.82;76.71;97635.05;103520;1292;110736;-69
2022/11/18 10:11:41;;;;;;;20.20;9.30;;;;;;;0.81;76.61;97641.59;103588;1297;97921;-70
2022/11/18 10:14:43;;;;;;;22.00;9.60;;;;;;;0.80;76.69;97643.91;103550;1292;107524;-70
2022/11/18 10:17:30;;;;;;;19.70;8.40;;;;;;;0.80;76.73;97643.35;103580;1299;96557;-68
2022/11/18 10:20:09;;;;;;;20.70;9.60;;;;;;;0.79;76.84;97640.44;103557;1291;98036;-70
2022/11/18 10:22:54;;;;;;;21.60;9.10;;;;;;;0.79;76.79;97640.61;103494;1292;110241;-70
2022/11/18 10:25:23;;;;;;;21.90;9.20;;;;;;;0.76;76.56;97637.13;103650;1290;97845;-71
2022/11/18 10:27:51;;;;;;;22.90;10.30;;;;;;;0.75;76.87;97636.34;103576;1297;107515;-71
2022/11/18 10:30:25;;;;;;;21.70;9.60;;;;;;;0.72;76.79;97642.40;103548;1292;97884;-69
2022/11/18 10:33:03;;;;;;;20.90;9.20;;;;;;;0.69;76.74;97637.30;103494;1284;97950;-71
2022/11/18 10:35:35;;;;;;;21.50;9.70;;;;;;;0.68;76.71;97636.89;103551;1292;110409;-69
2022/11/18 10:38:11;;;;;;;24.10;10.60;;;;;;;0.66;76.56;97632.96;103509;1292;97880;-69
2022/11/18 10:40:48;;;;;;;24.20;9.80;;;;;;;0.66;76.69;97627.73;103423;1292;107461;-72
2022/11/18 10:43:44;;;;;;;22.90;10.40;;;;;;;0.65;76.89;97619.26;103501;1290;97892;-70
2022/11/18 10:46:29;;;;;;;22.60;9.30;;;;;;;0.58;76.58;97626.80;103582;1285;97917;-70
2022/11/18 10:49:09;;;;;;;22.20;8.70;;;;;;;0.52;76.68;97631.44;103376;1293;111016;-69
2022/11/18 10:51:41;;;;;;;22.20;9.00;;;;;;;0.51;76.45;97636.20;103520;1291;97943;-73
2022/11/18 10:54:18;;;;;;;21.90;9.80;;;;;;;0.51;76.54;97637.27;103546;1291;107489;-70
2022/11/18 10:56:51;;;;;;;23.60;9.50;;;;;;;0.51;76.91;97633.63;103424;1288;97840;-75
2022/11/18 10:59:55;;;;;;;20.50;9.00;;;;;;;0.49;76.35;97636.67;103634;1298;95224;-72
2022/11/18 11:02:40;;;;;;;23.30;10.40;;;;;;;0.46;76.61;97642.58;103640;1288;111811;-72
2022/11/18 11:05:22;;;;;;;28.10;13.00;;;;;;;0.45;76.56;97630.60;103627;1296;95762;-69
2022/11/18 11:08:21;;;;;;;25.20;11.60;;;;;;;0.45;76.79;97624.17;103650;1299;107197;-68
2022/11/18 11:11:04;;;;;;;23.00;10.60;;;;;;;0.42;76.89;97628.50;103559;1302;98257;-70
2022/11/18 11:13:37;;;;;;;25.00;11.10;;;;;;;0.37;76.61;97636.61;103689;1289;95925;-72
2022/11/18 11:16:06;;;;;;;;;;;;;;;0.36;76.53;97643.33;103497;1298;110269;-70
2022/11/18 11:18:40;;;;;;;22.60;10.00;;;;;;;0.33;76.60;97635.44;103659;1292;95253;-69
2022/11/18 11:21:13;;;;;;;23.00;9.20;;;;;;;0.32;76.51;97634.80;103611;1292;107554;-69
2022/11/18 11:23:42;;;;;;;21.60;8.80;;;;;;;0.30;76.49;97632.11;103648;1297;97985;-70
2022/11/18 11:26:37;;;;;;;20.10;9.50;;;;;;;0.26;76.60;97635.84;103649;1289;95105;-69
2022/11/18 11:30:00;;;;;;;19.60;7.90;;;;;;;0.25;76.72;97636.59;103628;1295;110662;-67
2022/11/18 11:32:42;;;;;;;20.00;9.00;;;;;;;0.21;76.78;97645.30;103656;1297;97976;-70
2022/11/18 11:35:19;;;;;;;23.40;9.50;;;;;;;0.20;76.58;97654.98;103690;1291;107509;-68
2022/11/18 11:37:54;;;;;;;21.60;9.20;;;;;;;0.16;76.59;97652.20;103602;1297;97946;-68
2022/11/18 11:40:54;;;;;;;22.10;10.80;;;;;;;0.16;76.75;97653.26;103598;1291;97889;-70
2022/11/18 11:43:54;;;;;;;24.00;11.30;;;;;;;0.16;76.81;97642.45;103573;1299;110808;-68
2022/11/18 11:50:00;;;;;;;27.70;12.60;;;;;;;0.08;76.66;97644.76;103584;1298;108168;-69
2022/11/18 11:52:42;;;;;;;28.20;14.50;;;;;;;0.08;76.55;97648.06;103639;1299;97745;-69
2022/11/18 11:55:48;;;;;;;26.60;13.40;;;;;;;0.09;76.66;97655.19;103621;1282;98206;-70
2022/11/18 11:58:31;;;;;;;25.10;12.00;;;;;;;0.08;76.67;97652.79;103582;1291;111749;-69
2022/11/18 12:01:13;;;;;;;22.90;11.60;;;;;;;0.05;76.67;97650.16;103680;1292;95188;-69
2022/11/18 12:03:52;;;;;;;24.00;11.10;;;;;;;0.04;76.45;97648.48;103579;1299;107778;-69
2022/11/18 12:06:20;;;;;;;23.20;10.00;;;;;;;0.02;76.66;97647.90;103607;1297;98002;-69
2022/11/18 12:09:06;;;;;;;20.50;9.60;;;;;;;-0.01;76.72;97646.66;103688;1291;98532;-70